createdAt,value
2018-08-17T00:01:46.636Z,26.80
2018-08-17T00:04:15.183Z,23.00
2018-08-17T00:06:42.784Z,28.00
2018-08-17T00:09:11.293Z,27.00
2018-08-17T00:11:40.251Z,23.00
2018-08-17T00:14:08.378Z,26.80
2018-08-17T00:16:35.971Z,26.80
2018-08-17T00:19:04.303Z,26.20
2018-08-17T00:21:32.202Z,24.40
2018-08-17T00:24:01.155Z,27.60
2018-08-17T00:26:29.579Z,22.40
2018-08-17T00:29:03.911Z,27.80
2018-08-17T00:31:32.094Z,24.80
2018-08-17T00:34:00.538Z,24.00
2018-08-17T00:36:28.199Z,22.40
2018-08-17T00:38:55.819Z,25.80
2018-08-17T00:41:23.640Z,23.40
2018-08-17T00:43:53.078Z,29.20
2018-08-17T00:46:20.970Z,28.40
2018-08-17T00:48:48.571Z,28.00
2018-08-17T00:51:16.158Z,23.80
2018-08-17T00:53:43.730Z,26.60
2018-08-17T00:56:12.427Z,23.60
2018-08-17T00:58:40.015Z,23.00
2018-08-17T01:01:07.607Z,25.40
2018-08-17T01:03:35.491Z,25.40
2018-08-17T01:06:03.287Z,29.00
2018-08-17T01:08:30.879Z,27.60
2018-08-17T01:10:58.475Z,27.40
2018-08-17T01:13:26.338Z,26.00
2018-08-17T01:15:54.009Z,29.20
2018-08-17T01:18:22.596Z,22.00
2018-08-17T01:20:50.618Z,29.20
2018-08-17T01:23:18.230Z,25.20
2018-08-17T01:25:46.802Z,27.40
2018-08-17T01:28:14.547Z,24.40
2018-08-17T01:30:42.435Z,24.00
2018-08-17T01:33:10.119Z,28.00
2018-08-17T01:35:38.411Z,27.80
2018-08-17T01:38:06.597Z,22.00
2018-08-17T01:40:34.210Z,23.20
2018-08-17T01:43:01.863Z,22.00
2018-08-17T01:45:29.515Z,26.60
2018-08-17T01:47:58.379Z,27.00
2018-08-17T01:50:25.987Z,26.60
2018-08-17T01:52:53.625Z,27.40
2018-08-17T01:55:21.272Z,27.60
2018-08-17T01:57:49.238Z,29.20
2018-08-17T02:00:17.570Z,27.60
2018-08-17T02:02:45.190Z,24.40
2018-08-17T02:05:12.802Z,25.80
2018-08-17T02:07:40.695Z,24.80
2018-08-17T02:10:09.770Z,28.00
2018-08-17T02:12:37.655Z,23.60
2018-08-17T02:15:05.274Z,27.60
2018-08-17T02:17:33.169Z,24.80
2018-08-17T02:20:00.806Z,27.40
2018-08-17T02:22:28.500Z,27.80
2018-08-17T02:24:56.142Z,27.20
2018-08-17T02:27:25.003Z,27.40
2018-08-17T02:29:53.391Z,23.60
2018-08-17T02:32:21.055Z,27.20
2018-08-17T02:34:48.680Z,24.20
2018-08-17T02:37:16.704Z,25.00
2018-08-17T02:39:44.918Z,26.40
2018-08-17T02:42:12.540Z,29.40
2018-08-17T02:44:40.179Z,28.40
2018-08-17T02:47:08.179Z,18.00
2018-08-17T02:49:35.806Z,26.80
2018-08-17T02:52:03.489Z,27.40
2018-08-17T02:54:31.103Z,20.00
2018-08-17T02:56:58.970Z,26.80
2018-08-17T02:59:26.647Z,24.20
2018-08-17T03:01:54.218Z,20.80
2018-08-17T03:04:21.822Z,35.20
2018-08-17T03:06:49.719Z,23.00
2018-08-17T03:09:17.400Z,26.60
2018-08-17T03:11:45.039Z,27.20
2018-08-17T03:14:12.672Z,29.60
2018-08-17T03:16:40.331Z,23.20
2018-08-17T03:19:07.927Z,31.00
2018-08-17T03:21:35.794Z,26.00
2018-08-17T03:24:03.390Z,22.00
2018-08-17T03:26:31.009Z,29.60
2018-08-17T03:28:59.015Z,23.60
2018-08-17T03:31:26.635Z,26.80
2018-08-17T03:33:54.338Z,30.60
2018-08-17T03:36:22.570Z,33.00
2018-08-17T03:38:50.519Z,22.00
2018-08-17T03:41:18.132Z,29.80
2018-08-17T03:43:46.340Z,33.20
2018-08-17T03:46:13.975Z,30.80
2018-08-17T03:48:41.874Z,26.60
2018-08-17T03:51:09.503Z,28.80
2018-08-17T03:53:37.126Z,34.40
2018-08-17T03:56:05.061Z,28.40
2018-08-17T03:58:32.712Z,33.40
2018-08-17T04:01:00.392Z,34.60
2018-08-17T04:03:27.992Z,33.60
2018-08-17T04:05:55.897Z,27.60
2018-08-17T04:08:23.496Z,30.60
2018-08-17T04:10:51.124Z,35.40
2018-08-17T04:13:19.267Z,35.20
2018-08-17T04:15:47.142Z,37.80
2018-08-17T04:18:14.753Z,34.20
2018-08-17T04:20:42.396Z,33.40
2018-08-17T04:23:09.992Z,36.60
2018-08-17T04:25:37.870Z,32.40
2018-08-17T04:28:05.511Z,35.80
2018-08-17T04:30:33.213Z,28.40
2018-08-17T04:33:01.218Z,33.80
2018-08-17T04:35:30.114Z,29.60
2018-08-17T04:37:57.731Z,32.00
2018-08-17T04:40:26.031Z,32.40
2018-08-17T04:42:53.678Z,29.80
2018-08-17T04:45:21.573Z,30.00
2018-08-17T04:47:49.985Z,30.80
2018-08-17T04:50:17.599Z,32.20
2018-08-17T04:52:46.087Z,30.60
2018-08-17T04:55:14.067Z,28.80
2018-08-17T04:57:41.663Z,28.20
2018-08-17T05:00:10.078Z,28.80
2018-08-17T05:02:38.210Z,24.00
2018-08-17T05:05:05.839Z,24.00
2018-08-17T05:07:33.507Z,22.00
2018-08-17T05:10:01.124Z,24.20
2018-08-17T05:12:29.338Z,24.60
2018-08-17T05:14:57.222Z,24.60
2018-08-17T05:17:24.847Z,23.60
2018-08-17T05:19:52.473Z,24.80
2018-08-17T05:22:20.350Z,23.40
2018-08-17T05:24:47.935Z,19.00
2018-08-17T05:27:16.538Z,23.40
2018-08-17T05:29:45.256Z,16.00
2018-08-17T05:32:12.862Z,18.80
2018-08-17T05:34:40.476Z,20.00
2018-08-17T05:37:08.352Z,18.20
2018-08-17T05:39:37.560Z,19.40
2018-08-17T05:42:05.188Z,16.00
2018-08-17T05:44:33.092Z,17.60
2018-08-17T05:47:00.711Z,19.40
2018-08-17T05:49:28.311Z,17.20
2018-08-17T05:51:56.202Z,13.00
2018-08-17T05:54:23.800Z,15.00
2018-08-17T05:56:51.423Z,13.00
2018-08-17T05:59:19.439Z,15.60
2018-08-17T06:01:47.322Z,16.00
2018-08-17T06:04:14.988Z,13.40
2018-08-17T06:06:42.902Z,13.80
2018-08-17T06:09:10.923Z,16.80
2018-08-17T06:11:38.915Z,16.80
2018-08-17T06:14:06.970Z,16.00
2018-08-17T06:16:34.600Z,14.20
2018-08-17T06:19:02.183Z,14.20
2018-08-17T06:21:30.071Z,10.60
2018-08-17T06:23:57.694Z,12.60
2018-08-17T06:26:25.327Z,10.40
2018-08-17T06:28:53.204Z,10.60
2018-08-17T06:31:20.870Z,10.00
2018-08-17T06:33:49.539Z,8.00
2018-08-17T06:36:17.469Z,10.20
2018-08-17T06:38:45.118Z,11.40
2018-08-17T06:41:12.751Z,13.20
2018-08-17T06:43:45.557Z,12.60
2018-08-17T06:46:13.387Z,10.40
2018-08-17T06:48:41.008Z,13.00
2018-08-17T06:51:08.889Z,7.60
2018-08-17T06:53:36.542Z,13.00
2018-08-17T06:56:04.115Z,8.80
2018-08-17T06:58:31.990Z,9.60
2018-08-17T07:00:59.603Z,6.20
2018-08-17T07:03:27.190Z,10.20
2018-08-17T07:05:55.105Z,9.20
2018-08-17T07:08:23.514Z,9.00
2018-08-17T07:10:53.078Z,9.80
2018-08-17T07:13:21.049Z,6.80
2018-08-17T07:15:49.299Z,9.40
2018-08-17T07:18:16.925Z,10.00
2018-08-17T07:20:44.913Z,10.80
2018-08-17T07:23:12.538Z,12.20
2018-08-17T07:25:40.219Z,13.00
2018-08-17T07:28:09.385Z,13.60
2018-08-17T07:30:37.062Z,11.40
2018-08-17T07:33:06.609Z,12.20
2018-08-17T07:35:34.718Z,9.80
2018-08-17T07:38:04.034Z,12.00
2018-08-17T07:40:32.885Z,14.80
2018-08-17T07:43:03.853Z,15.00
2018-08-17T07:45:31.474Z,14.20
2018-08-17T07:47:59.938Z,15.00
2018-08-17T07:50:29.367Z,12.80
2018-08-17T07:52:56.969Z,16.00
2018-08-17T07:55:24.605Z,13.00
2018-08-17T07:57:52.495Z,14.60
2018-08-17T08:00:20.143Z,15.20
2018-08-17T08:02:48.478Z,10.00
2018-08-17T08:05:16.655Z,12.80
2018-08-17T08:07:45.066Z,12.40
2018-08-17T08:10:12.885Z,15.40
2018-08-17T08:12:47.370Z,16.00
2018-08-17T08:15:14.990Z,10.80
2018-08-17T08:17:42.658Z,12.20
2018-08-17T08:20:11.269Z,15.60
2018-08-17T08:22:38.980Z,12.80
2018-08-17T08:25:07.255Z,16.40
2018-08-17T08:27:37.670Z,18.60
2018-08-17T08:30:05.927Z,15.20
2018-08-17T08:32:34.150Z,16.00
2018-08-17T08:35:02.264Z,11.80
2018-08-17T08:37:29.896Z,20.00
2018-08-17T08:39:57.620Z,18.60
2018-08-17T08:42:25.507Z,18.60
2018-08-17T08:44:53.127Z,18.00
2018-08-17T08:47:20.749Z,18.60
2018-08-17T08:49:48.723Z,18.80
2018-08-17T08:52:16.312Z,15.00
2018-08-17T08:54:43.922Z,20.20
2018-08-17T08:57:11.814Z,18.80
2018-08-17T08:59:39.506Z,18.00
2018-08-17T09:02:07.659Z,16.20
2018-08-17T09:04:35.564Z,19.40
2018-08-17T09:07:03.234Z,20.40
2018-08-17T09:09:32.477Z,20.00
2018-08-17T09:12:00.980Z,19.60
2018-08-17T09:14:28.595Z,22.00
2018-08-17T09:16:56.509Z,23.60
2018-08-17T09:19:25.391Z,17.40
2018-08-17T09:21:54.136Z,19.40
2018-08-17T09:24:22.065Z,16.20
2018-08-17T09:26:53.248Z,18.00
2018-08-17T09:29:22.248Z,17.20
2018-08-17T09:31:53.860Z,15.80
2018-08-17T09:34:21.462Z,15.20
2018-08-17T09:36:49.264Z,15.20
2018-08-17T09:39:18.876Z,16.80
2018-08-17T09:41:46.775Z,14.80
2018-08-17T09:44:14.512Z,15.40
2018-08-17T09:46:42.418Z,14.40
2018-08-17T09:49:10.049Z,13.60
2018-08-17T09:51:38.374Z,12.00
2018-08-17T09:54:07.327Z,13.00
2018-08-17T09:56:35.758Z,13.00
2018-08-17T09:59:03.406Z,6.80
2018-08-17T10:01:36.247Z,10.80
2018-08-17T10:04:08.990Z,14.20
2018-08-17T10:06:41.856Z,11.20
2018-08-17T10:09:16.257Z,13.60
2018-08-17T10:11:43.930Z,11.20
2018-08-17T10:14:11.847Z,13.20
2018-08-17T10:16:39.450Z,10.00
2018-08-17T10:19:07.041Z,11.20
2018-08-17T10:21:40.315Z,10.40
2018-08-17T10:24:07.647Z,11.00
2018-08-17T10:26:35.250Z,6.60
2018-08-17T10:29:03.834Z,9.20
2018-08-17T10:31:34.703Z,12.40
2018-08-17T10:34:02.680Z,12.80
2018-08-17T10:36:31.584Z,11.60
2018-08-17T10:39:00.901Z,12.20
2018-08-17T10:41:28.511Z,15.40
2018-08-17T10:43:57.534Z,14.80
2018-08-17T10:46:25.952Z,17.00
2018-08-17T10:48:53.742Z,15.00
2018-08-17T10:51:23.652Z,14.60
2018-08-17T10:53:52.274Z,14.20
2018-08-17T10:56:19.880Z,15.20
2018-08-17T10:58:47.770Z,17.00
2018-08-17T11:01:16.092Z,18.60
2018-08-17T11:03:45.398Z,15.40
2018-08-17T11:06:13.290Z,20.60
2018-08-17T11:08:40.901Z,19.40
2018-08-17T11:11:08.700Z,16.80
2018-08-17T11:13:36.656Z,19.40
2018-08-17T11:16:04.816Z,17.60
2018-08-17T11:18:36.071Z,20.60
2018-08-17T11:21:04.936Z,17.40
2018-08-17T11:23:32.569Z,16.60
2018-08-17T11:26:00.847Z,18.80
2018-08-17T11:28:30.900Z,23.40
2018-08-17T11:30:58.571Z,26.60
2018-08-17T11:33:28.782Z,23.80
2018-08-17T11:35:57.184Z,27.80
2018-08-17T11:38:28.501Z,28.20
2018-08-17T11:40:58.905Z,26.80
2018-08-17T11:43:27.644Z,29.40
2018-08-17T11:45:55.681Z,32.00
2018-08-17T11:48:28.360Z,29.40
2018-08-17T11:50:56.540Z,24.60
2018-08-17T11:53:24.264Z,28.40
2018-08-17T11:55:52.739Z,31.20
2018-08-17T11:58:20.840Z,29.80
2018-08-17T12:00:52.476Z,31.60
2018-08-17T12:03:20.108Z,27.60
2018-08-17T12:05:48.043Z,27.20
2018-08-17T12:08:16.566Z,22.40
2018-08-17T12:10:44.616Z,21.40
2018-08-17T12:13:18.693Z,24.80
2018-08-17T12:15:51.263Z,25.20
2018-08-17T12:18:21.637Z,22.40
2018-08-17T12:20:50.223Z,24.20
2018-08-17T12:23:17.907Z,21.00
2018-08-17T12:25:52.066Z,23.00
2018-08-17T12:28:19.768Z,17.00
2018-08-17T12:30:47.740Z,22.60
2018-08-17T12:33:24.376Z,18.60
2018-08-17T12:35:52.336Z,16.00
2018-08-17T12:38:20.038Z,17.40
2018-08-17T12:40:49.710Z,16.40
2018-08-17T12:43:19.031Z,17.40
2018-08-17T12:45:49.332Z,15.80
2018-08-17T12:48:17.939Z,18.20
2018-08-17T12:50:45.970Z,20.60
2018-08-17T12:53:14.550Z,19.60
2018-08-17T12:55:44.359Z,18.40
2018-08-17T12:58:15.904Z,20.40
2018-08-17T13:00:43.579Z,17.20
2018-08-17T13:03:11.769Z,14.20
2018-08-17T13:05:39.426Z,9.00
2018-08-17T13:08:07.882Z,17.60
2018-08-17T13:10:35.875Z,15.80
2018-08-17T13:13:09.300Z,21.00
2018-08-17T13:15:38.103Z,16.80
2018-08-17T13:18:11.622Z,20.20
2018-08-17T13:20:44.538Z,21.80
2018-08-17T13:23:12.264Z,22.00
2018-08-17T13:25:40.532Z,20.20
2018-08-17T13:28:08.216Z,18.40
2018-08-17T13:30:36.098Z,18.00
2018-08-17T13:33:03.732Z,16.60
2018-08-17T13:35:31.397Z,15.60
2018-08-17T13:37:59.284Z,18.40
2018-08-17T13:40:27.830Z,17.00
2018-08-17T13:42:55.511Z,15.80
2018-08-17T13:45:23.491Z,14.80
2018-08-17T13:47:51.148Z,15.00
2018-08-17T13:50:19.991Z,15.00
2018-08-17T13:52:48.611Z,19.60
2018-08-17T13:55:16.294Z,18.60
2018-08-17T13:57:43.963Z,13.20
2018-08-17T14:00:12.259Z,16.00
2018-08-17T14:02:41.735Z,19.20
2018-08-17T14:05:09.700Z,16.60
2018-08-17T14:07:37.767Z,20.00
2018-08-17T14:10:05.443Z,19.20
2018-08-17T14:12:33.308Z,20.80
2018-08-17T14:15:01.279Z,17.20
2018-08-17T14:17:29.625Z,20.80
2018-08-17T14:19:58.840Z,19.40
2018-08-17T14:22:26.771Z,19.00
2018-08-17T14:24:54.397Z,19.40
2018-08-17T14:27:22.834Z,18.80
2018-08-17T14:29:50.752Z,21.20
2018-08-17T14:32:19.615Z,20.60
2018-08-17T14:34:48.240Z,23.40
2018-08-17T14:37:16.101Z,20.80
2018-08-17T14:39:44.477Z,20.20
2018-08-17T14:42:12.515Z,19.00
2018-08-17T14:44:40.381Z,19.60
2018-08-17T14:47:08.020Z,21.80
2018-08-17T14:49:35.626Z,21.80
2018-08-17T14:52:05.374Z,19.00
2018-08-17T14:54:36.547Z,18.40
2018-08-17T14:57:07.819Z,21.40
2018-08-17T14:59:35.716Z,17.40
2018-08-17T15:02:04.139Z,21.60
2018-08-17T15:04:31.826Z,23.40
2018-08-17T15:06:59.941Z,16.20
2018-08-17T15:09:28.082Z,14.00
2018-08-17T15:11:55.736Z,15.60
2018-08-17T15:14:24.451Z,11.00
2018-08-17T15:16:52.261Z,13.80
2018-08-17T15:19:19.871Z,11.20
2018-08-17T15:21:47.828Z,9.40
2018-08-17T15:24:16.396Z,12.00
2018-08-17T15:26:44.108Z,10.20
2018-08-17T15:29:12.058Z,12.80
2018-08-17T15:31:39.717Z,13.00
2018-08-17T15:34:07.330Z,12.00
2018-08-17T15:36:36.428Z,10.00
2018-08-17T15:39:04.652Z,13.00
2018-08-17T15:41:37.260Z,11.40
2018-08-17T15:44:05.760Z,10.00
2018-08-17T15:46:33.668Z,9.20
2018-08-17T15:49:02.315Z,5.00
2018-08-17T15:51:31.647Z,8.40
2018-08-17T15:53:59.251Z,9.00
2018-08-17T15:56:27.908Z,8.80
2018-08-17T15:58:56.469Z,9.00
2018-08-17T16:01:24.154Z,6.80
2018-08-17T16:03:53.431Z,7.60
2018-08-17T16:06:21.671Z,7.00
2018-08-17T16:08:49.487Z,7.80
2018-08-17T16:11:17.406Z,5.40
2018-08-17T16:13:46.732Z,6.00
2018-08-17T16:16:15.338Z,5.00
2018-08-17T16:18:47.337Z,6.20
2018-08-17T16:21:14.992Z,6.60
2018-08-17T16:23:42.640Z,10.00
2018-08-17T16:26:11.292Z,7.80
2018-08-17T16:28:38.958Z,8.00
2018-08-17T16:31:07.294Z,14.20
2018-08-17T16:33:39.431Z,9.00
2018-08-17T16:36:07.244Z,11.60
2018-08-17T16:38:35.475Z,13.00
2018-08-17T16:41:03.485Z,10.20
2018-08-17T16:43:32.179Z,10.20
2018-08-17T16:45:59.837Z,10.20
2018-08-17T16:48:27.850Z,12.00
2018-08-17T16:50:56.666Z,10.40
2018-08-17T16:53:29.304Z,13.20
2018-08-17T16:55:57.300Z,13.80
2018-08-17T16:58:26.605Z,11.20
2018-08-17T17:00:54.385Z,14.00
2018-08-17T17:03:23.061Z,13.40
2018-08-17T17:05:50.696Z,2.20
2018-08-17T17:08:21.493Z,12.80
2018-08-17T17:10:49.401Z,9.20
2018-08-17T17:13:19.384Z,10.20
2018-08-17T17:15:47.995Z,10.80
2018-08-17T17:18:16.037Z,13.00
2018-08-17T17:20:43.753Z,12.80
2018-08-17T17:23:13.533Z,11.60
2018-08-17T17:25:41.731Z,14.40
2018-08-17T17:28:10.269Z,13.60
2018-08-17T17:30:42.968Z,15.00
2018-08-17T17:33:11.410Z,13.00
2018-08-17T17:35:40.693Z,19.60
2018-08-17T17:38:09.791Z,16.60
2018-08-17T17:40:38.753Z,16.40
2018-08-17T17:43:07.715Z,18.00
2018-08-17T17:45:35.739Z,21.20
2018-08-17T17:48:04.086Z,16.20
2018-08-17T17:50:32.003Z,18.20
2018-08-17T17:53:00.534Z,17.20
2018-08-17T17:55:28.852Z,20.60
2018-08-17T17:57:58.500Z,18.00
2018-08-17T18:00:28.299Z,18.00
2018-08-17T18:02:56.517Z,16.00
2018-08-17T18:05:24.184Z,16.20
2018-08-17T18:07:53.756Z,15.00
2018-08-17T18:10:22.533Z,12.20
2018-08-17T18:12:51.211Z,16.80
2018-08-17T18:15:19.927Z,13.20
2018-08-17T18:17:49.286Z,13.80
2018-08-17T18:20:17.782Z,16.20
2018-08-17T18:22:45.571Z,11.60
2018-08-17T18:25:18.348Z,15.00
2018-08-17T18:27:46.742Z,14.00
2018-08-17T18:30:16.045Z,11.60
2018-08-17T18:32:43.998Z,12.00
2018-08-17T18:35:13.049Z,15.00
2018-08-17T18:37:41.418Z,14.20
2018-08-17T18:40:11.375Z,14.00
2018-08-17T18:42:39.926Z,13.00
2018-08-17T18:45:07.852Z,14.00
2018-08-17T18:47:35.825Z,15.40
2018-08-17T18:50:04.016Z,13.20
2018-08-17T18:52:31.665Z,17.00
2018-08-17T18:54:59.657Z,14.00
2018-08-17T18:57:27.365Z,14.00
2018-08-17T18:59:55.807Z,14.00
2018-08-17T19:02:23.707Z,11.20
2018-08-17T19:04:51.535Z,7.80
2018-08-17T19:07:19.138Z,13.00
2018-08-17T19:09:48.355Z,15.80
2018-08-17T19:12:18.451Z,18.00
2018-08-17T19:14:50.336Z,19.00
2018-08-17T19:17:23.299Z,18.20
2018-08-17T19:19:53.677Z,18.40
2018-08-17T19:22:21.959Z,16.00
2018-08-17T19:24:50.488Z,16.40
2018-08-17T19:27:24.211Z,18.40
2018-08-17T19:29:54.469Z,19.80
2018-08-17T19:32:22.671Z,20.60
2018-08-17T19:34:50.307Z,18.40
2018-08-17T19:37:25.081Z,15.80
2018-08-17T19:39:53.850Z,19.60
2018-08-17T19:42:21.518Z,21.00
2018-08-17T19:44:49.161Z,20.80
2018-08-17T19:47:17.642Z,19.80
2018-08-17T19:49:46.529Z,18.20
2018-08-17T19:52:14.720Z,17.20
2018-08-17T19:54:43.329Z,21.00
2018-08-17T19:57:11.839Z,17.60
2018-08-17T19:59:41.439Z,21.40
2018-08-17T20:02:10.362Z,19.00
2018-08-17T20:04:38.058Z,19.00
2018-08-17T20:07:05.720Z,18.00
2018-08-17T20:09:36.196Z,16.40
2018-08-17T20:12:03.827Z,12.00
2018-08-17T20:14:31.616Z,15.80
2018-08-17T20:16:59.552Z,11.20
2018-08-17T20:19:32.207Z,15.20
2018-08-17T20:22:03.582Z,16.00
2018-08-17T20:24:32.442Z,13.00
2018-08-17T20:27:00.264Z,16.00
2018-08-17T20:29:29.118Z,17.20
2018-08-17T20:31:57.717Z,12.00
2018-08-17T20:34:25.455Z,15.80
2018-08-17T20:36:53.142Z,15.00
2018-08-17T20:39:21.071Z,13.80
2018-08-17T20:41:49.598Z,17.20
2018-08-17T20:44:17.250Z,15.20
2018-08-17T20:46:46.382Z,17.60
2018-08-17T20:49:14.022Z,16.80
2018-08-17T20:51:46.324Z,17.20
2018-08-17T20:54:14.259Z,19.00
2018-08-17T20:56:41.899Z,17.20
2018-08-17T20:59:09.497Z,15.00
2018-08-17T21:01:40.500Z,17.80
2018-08-17T21:04:09.037Z,14.20
2018-08-17T21:06:37.439Z,22.00
2018-08-17T21:09:09.093Z,17.80
2018-08-17T21:11:37.639Z,18.00
2018-08-17T21:14:05.590Z,18.00
2018-08-17T21:16:33.753Z,16.80
2018-08-17T21:19:01.670Z,22.40
2018-08-17T21:21:29.596Z,23.60
2018-08-17T21:23:58.512Z,15.80
2018-08-17T21:26:26.689Z,18.80
2018-08-17T21:28:54.370Z,18.00
2018-08-17T21:31:22.861Z,17.60
2018-08-17T21:33:50.511Z,18.40
2018-08-17T21:36:18.313Z,19.20
2018-08-17T21:38:46.346Z,18.00
2018-08-17T21:41:13.935Z,18.00
2018-08-17T21:43:42.354Z,18.20
2018-08-17T21:46:12.241Z,19.00
2018-08-17T21:48:39.844Z,16.40
2018-08-17T21:51:08.326Z,11.20
2018-08-17T21:53:39.232Z,14.20
2018-08-17T21:56:07.768Z,17.60
2018-08-17T21:58:37.365Z,15.60
2018-08-17T22:01:05.451Z,20.20
2018-08-17T22:03:35.247Z,16.00
2018-08-17T22:06:02.864Z,16.00
2018-08-17T22:08:30.805Z,19.80
2018-08-17T22:11:01.374Z,14.60
2018-08-17T22:13:30.041Z,19.80
2018-08-17T22:15:57.880Z,18.40
2018-08-17T22:18:25.537Z,13.00
2018-08-17T22:20:53.383Z,18.60
2018-08-17T22:23:21.960Z,15.80
2018-08-17T22:25:49.572Z,16.00
2018-08-17T22:28:17.660Z,17.20
2018-08-17T22:30:45.860Z,15.00
2018-08-17T22:33:14.276Z,17.60
2018-08-17T22:35:43.347Z,18.00
2018-08-17T22:38:11.613Z,13.40
2018-08-17T22:40:40.232Z,22.00
2018-08-17T22:43:08.709Z,18.00
2018-08-17T22:45:36.305Z,19.00
2018-08-17T22:48:03.932Z,13.00
2018-08-17T22:50:31.828Z,18.00
2018-08-17T22:53:00.243Z,17.80
2018-08-17T22:55:27.850Z,18.40
2018-08-17T22:57:56.108Z,15.60
2018-08-17T23:00:24.289Z,15.80
2018-08-17T23:02:53.089Z,17.00
2018-08-17T23:05:23.226Z,21.00
2018-08-17T23:07:50.864Z,18.60
2018-08-17T23:10:21.292Z,21.00
2018-08-17T23:12:50.359Z,19.40
2018-08-17T23:15:19.553Z,15.40
2018-08-17T23:18:03.310Z,19.00
2018-08-17T23:20:37.459Z,19.80
2018-08-17T23:23:06.064Z,20.20
2018-08-17T23:25:35.482Z,15.80
2018-08-17T23:28:04.607Z,16.80
2018-08-17T23:30:32.334Z,15.00
2018-08-17T23:33:00.029Z,19.20
2018-08-17T23:35:27.931Z,15.80
2018-08-17T23:37:55.527Z,15.00
2018-08-17T23:40:23.143Z,15.00
2018-08-17T23:42:51.462Z,16.80
2018-08-17T23:45:19.797Z,18.40
2018-08-17T23:47:47.440Z,16.20
2018-08-17T23:50:15.968Z,18.80
2018-08-17T23:52:43.857Z,18.20
2018-08-17T23:55:11.831Z,16.60
2018-08-17T23:57:39.440Z,15.60
